createdAt,value
2022-09-16T00:00:06.337Z,1.00
2022-09-16T00:01:06.418Z,0.70
2022-09-16T00:02:06.367Z,0.80
2022-09-16T00:03:06.317Z,0.70
2022-09-16T00:04:06.300Z,1.00
2022-09-16T00:05:06.263Z,1.10
2022-09-16T00:06:06.257Z,0.90
2022-09-16T00:07:06.253Z,0.90
2022-09-16T00:08:06.234Z,0.90
2022-09-16T00:09:06.215Z,0.90
2022-09-16T00:10:06.199Z,1.00
2022-09-16T00:11:06.216Z,1.10
2022-09-16T00:12:06.220Z,0.80
2022-09-16T00:13:06.165Z,0.80
2022-09-16T00:14:06.160Z,1.20
2022-09-16T00:15:06.142Z,0.90
2022-09-16T00:16:06.215Z,1.10
2022-09-16T00:17:06.151Z,1.10
2022-09-16T00:18:06.134Z,0.90
2022-09-16T00:19:06.126Z,1.00
2022-09-16T00:20:06.110Z,0.90
2022-09-16T00:21:06.085Z,0.90
2022-09-16T00:22:06.093Z,1.30
2022-09-16T00:23:06.061Z,1.00
2022-09-16T00:24:06.076Z,0.70
2022-09-16T00:25:06.038Z,0.90
2022-09-16T00:26:06.024Z,0.80
2022-09-16T00:27:06.032Z,1.00
2022-09-16T00:28:06.026Z,0.80
2022-09-16T00:29:06.006Z,1.00
2022-09-16T00:30:05.980Z,1.00
2022-09-16T00:31:06.008Z,1.10
2022-09-16T00:32:05.985Z,0.90
2022-09-16T00:33:05.956Z,0.80
2022-09-16T00:34:05.938Z,0.90
2022-09-16T00:35:05.963Z,0.80
2022-09-16T00:36:05.910Z,0.90
2022-09-16T00:37:05.898Z,1.00
2022-09-16T00:38:05.898Z,1.20
2022-09-16T00:39:05.888Z,1.20
2022-09-16T00:40:05.931Z,1.00
2022-09-16T00:41:05.859Z,1.10
2022-09-16T00:42:05.837Z,1.00
2022-09-16T00:43:05.847Z,0.80
2022-09-16T00:44:05.825Z,1.10
2022-09-16T00:45:05.834Z,0.90
2022-09-16T00:46:05.796Z,1.00
2022-09-16T00:47:05.831Z,0.80
2022-09-16T00:48:05.781Z,1.00
2022-09-16T00:49:05.769Z,1.10
2022-09-16T00:50:05.747Z,1.00
2022-09-16T00:51:05.757Z,1.00
2022-09-16T00:52:05.756Z,1.10
2022-09-16T00:53:05.753Z,0.80
2022-09-16T00:54:05.698Z,1.30
2022-09-16T00:55:05.708Z,0.80
2022-09-16T00:56:05.706Z,1.00
2022-09-16T00:57:05.687Z,0.80
2022-09-16T00:58:05.657Z,0.80
2022-09-16T00:59:05.649Z,0.80
2022-09-16T01:00:05.645Z,1.30
2022-09-16T01:01:05.716Z,0.60
2022-09-16T01:02:05.716Z,0.60
2022-09-16T01:03:05.601Z,1.00
2022-09-16T01:04:05.589Z,0.90
2022-09-16T01:05:05.578Z,1.10
2022-09-16T01:06:05.572Z,0.90
2022-09-16T01:07:05.598Z,0.90
2022-09-16T01:08:05.558Z,0.90
2022-09-16T01:09:05.537Z,0.90
2022-09-16T01:10:05.515Z,1.00
2022-09-16T01:11:05.509Z,1.10
2022-09-16T01:12:05.492Z,0.90
2022-09-16T01:13:05.493Z,1.00
2022-09-16T01:14:05.472Z,1.10
2022-09-16T01:15:05.474Z,1.10
2022-09-16T01:16:05.531Z,0.80
2022-09-16T01:17:05.438Z,1.10
2022-09-16T01:18:05.451Z,0.90
2022-09-16T01:19:05.421Z,0.80
2022-09-16T01:20:05.415Z,1.10
2022-09-16T01:21:05.420Z,0.70
2022-09-16T01:22:05.402Z,0.50
2022-09-16T01:23:05.416Z,1.10
2022-09-16T01:24:05.383Z,0.80
2022-09-16T01:25:05.381Z,0.80
2022-09-16T01:26:05.334Z,0.80
2022-09-16T01:27:05.354Z,1.00
2022-09-16T01:28:05.334Z,0.80
2022-09-16T01:29:05.300Z,0.80
2022-09-16T01:30:05.315Z,0.70
2022-09-16T01:31:05.331Z,0.50
2022-09-16T01:32:05.281Z,0.80
2022-09-16T01:33:05.267Z,0.60
2022-09-16T01:34:05.242Z,0.80
2022-09-16T01:35:05.241Z,0.70
2022-09-16T01:36:05.220Z,1.00
2022-09-16T01:37:05.236Z,0.90
2022-09-16T01:38:05.197Z,0.60
2022-09-16T01:39:05.214Z,0.80
2022-09-16T01:40:05.244Z,0.80
2022-09-16T01:41:05.171Z,0.70
2022-09-16T01:42:05.161Z,0.80
2022-09-16T01:43:05.167Z,0.90
2022-09-16T01:44:05.133Z,0.80
2022-09-16T01:45:05.114Z,0.90
2022-09-16T01:46:05.181Z,0.70
2022-09-16T01:47:05.114Z,0.70
2022-09-16T01:48:05.145Z,1.00
2022-09-16T01:49:05.097Z,0.80
2022-09-16T01:50:05.065Z,0.80
2022-09-16T01:51:05.060Z,0.70
2022-09-16T01:52:05.037Z,0.90
2022-09-16T01:53:05.035Z,0.70
2022-09-16T01:54:05.036Z,1.00
2022-09-16T01:55:05.029Z,0.80
2022-09-16T01:56:05.000Z,1.00
2022-09-16T01:57:05.001Z,0.70
2022-09-16T01:58:05.030Z,0.80
2022-09-16T01:59:04.966Z,1.00
2022-09-16T02:00:04.955Z,1.00
2022-09-16T02:01:04.949Z,1.20
2022-09-16T02:02:05.003Z,0.80
2022-09-16T02:03:04.908Z,1.00
2022-09-16T02:04:04.906Z,0.80
2022-09-16T02:05:04.907Z,0.80
2022-09-16T02:06:04.906Z,0.90
2022-09-16T02:07:04.871Z,0.70
2022-09-16T02:08:04.859Z,0.80
2022-09-16T02:09:04.846Z,1.00
2022-09-16T02:10:04.837Z,1.10
2022-09-16T02:11:04.851Z,0.80
2022-09-16T02:12:04.821Z,1.10
2022-09-16T02:13:04.804Z,0.90
2022-09-16T02:14:04.795Z,0.90
2022-09-16T02:15:04.781Z,1.00
2022-09-16T02:16:04.841Z,0.70
2022-09-16T02:17:04.770Z,0.90
2022-09-16T02:18:04.741Z,0.60
2022-09-16T02:19:04.735Z,1.00
2022-09-16T02:20:04.723Z,1.00
2022-09-16T02:21:04.714Z,0.80
2022-09-16T02:22:04.700Z,0.90
2022-09-16T02:23:04.689Z,0.90
2022-09-16T02:24:04.743Z,0.80
2022-09-16T02:25:04.763Z,0.80
2022-09-16T02:26:04.663Z,1.10
2022-09-16T02:27:04.677Z,0.80
2022-09-16T02:28:04.649Z,1.10
2022-09-16T02:29:04.638Z,0.90
2022-09-16T02:30:04.660Z,0.70
2022-09-16T02:31:04.639Z,1.00
2022-09-16T02:32:04.582Z,0.80
2022-09-16T02:33:04.571Z,1.10
2022-09-16T02:34:04.560Z,1.40
2022-09-16T02:35:04.600Z,1.10
2022-09-16T02:36:04.544Z,1.10
2022-09-16T02:37:04.527Z,1.00
2022-09-16T02:38:04.525Z,1.00
2022-09-16T02:39:04.508Z,1.20
2022-09-16T02:40:04.517Z,1.10
2022-09-16T02:41:04.486Z,1.10
2022-09-16T02:42:04.464Z,0.80
2022-09-16T02:43:04.480Z,0.90
2022-09-16T02:44:04.449Z,1.00
2022-09-16T02:45:04.506Z,1.30
2022-09-16T02:46:04.528Z,1.20
2022-09-16T02:47:04.438Z,1.20
2022-09-16T02:48:04.405Z,1.50
2022-09-16T02:49:04.395Z,1.20
2022-09-16T02:50:04.377Z,0.90
2022-09-16T02:51:04.371Z,1.10
2022-09-16T02:52:04.362Z,1.10
2022-09-16T02:53:04.375Z,0.90
2022-09-16T02:54:04.333Z,1.10
2022-09-16T02:55:04.330Z,1.30
2022-09-16T02:56:04.310Z,1.20
2022-09-16T02:57:04.302Z,1.10
2022-09-16T02:58:04.293Z,1.00
2022-09-16T02:59:04.291Z,1.40
2022-09-16T03:00:04.256Z,1.00
2022-09-16T03:01:04.267Z,1.30
2022-09-16T03:02:04.651Z,1.20
2022-09-16T03:03:04.274Z,1.60
2022-09-16T03:04:04.228Z,1.30
2022-09-16T03:05:04.208Z,1.50
2022-09-16T03:06:04.193Z,1.40
2022-09-16T03:07:04.188Z,1.40
2022-09-16T03:08:04.175Z,1.50
2022-09-16T03:09:04.159Z,1.30
2022-09-16T03:10:04.163Z,1.40
2022-09-16T03:11:04.136Z,1.30
2022-09-16T03:12:04.141Z,1.30
2022-09-16T03:13:04.118Z,1.20
2022-09-16T03:14:04.122Z,1.30
2022-09-16T03:15:04.137Z,1.00
2022-09-16T03:16:04.184Z,1.30
2022-09-16T03:17:04.071Z,1.30
2022-09-16T03:18:04.061Z,1.30
2022-09-16T03:19:04.054Z,1.50
2022-09-16T03:20:04.050Z,1.40
2022-09-16T03:21:04.042Z,1.50
2022-09-16T03:22:04.032Z,1.20
2022-09-16T03:23:03.997Z,1.30
2022-09-16T03:24:03.990Z,1.60
2022-09-16T03:25:03.977Z,1.30
2022-09-16T03:26:03.969Z,1.50
2022-09-16T03:27:03.966Z,1.30
2022-09-16T03:28:03.950Z,1.30
2022-09-16T03:29:03.941Z,1.40
2022-09-16T03:30:03.926Z,1.30
2022-09-16T03:31:04.075Z,1.00
2022-09-16T03:32:03.906Z,1.00
2022-09-16T03:33:03.917Z,1.70
2022-09-16T03:34:03.870Z,1.20
2022-09-16T03:35:03.878Z,1.60
2022-09-16T03:36:03.859Z,1.50
2022-09-16T03:37:03.845Z,1.50
2022-09-16T03:38:03.838Z,1.00
2022-09-16T03:39:03.825Z,1.30
2022-09-16T03:40:03.886Z,1.10
2022-09-16T03:41:03.821Z,0.90
2022-09-16T03:42:03.790Z,1.30
2022-09-16T03:43:03.792Z,1.10
2022-09-16T03:44:04.472Z,1.20
2022-09-16T03:45:03.747Z,1.20
2022-09-16T03:46:03.795Z,1.30
2022-09-16T03:47:03.746Z,1.20
2022-09-16T03:48:03.717Z,0.90
2022-09-16T03:49:03.708Z,1.50
2022-09-16T03:50:03.697Z,1.20
2022-09-16T03:51:03.691Z,1.60
2022-09-16T03:52:03.695Z,1.40
2022-09-16T03:53:03.655Z,1.50
2022-09-16T03:54:03.651Z,1.10
2022-09-16T03:55:03.632Z,1.30
2022-09-16T03:56:03.692Z,1.40
2022-09-16T03:57:03.617Z,1.60
2022-09-16T03:58:03.617Z,1.20
2022-09-16T03:59:03.602Z,1.10
2022-09-16T04:00:03.578Z,1.40
2022-09-16T04:01:03.580Z,1.30
2022-09-16T04:02:03.588Z,1.10
2022-09-16T04:03:03.641Z,1.30
2022-09-16T04:04:03.544Z,1.20
2022-09-16T04:05:03.527Z,1.40
2022-09-16T04:06:03.523Z,1.30
2022-09-16T04:07:03.496Z,1.10
2022-09-16T04:08:03.501Z,1.00
2022-09-16T04:09:03.481Z,1.00
2022-09-16T04:10:03.469Z,1.00
2022-09-16T04:11:03.453Z,1.30
2022-09-16T04:12:03.452Z,1.10
2022-09-16T04:13:03.432Z,1.40
2022-09-16T04:14:03.419Z,1.10
2022-09-16T04:15:03.405Z,1.20
2022-09-16T04:16:03.559Z,1.10
2022-09-16T04:17:03.390Z,1.30
2022-09-16T04:18:03.417Z,1.30
2022-09-16T04:19:03.389Z,1.30
2022-09-16T04:20:03.362Z,1.20
2022-09-16T04:21:03.339Z,1.20
2022-09-16T04:22:03.344Z,0.90
2022-09-16T04:23:03.312Z,1.20
2022-09-16T04:24:03.324Z,1.20
2022-09-16T04:25:03.316Z,1.20
2022-09-16T04:26:03.311Z,1.20
2022-09-16T04:27:03.278Z,1.00
2022-09-16T04:28:03.253Z,1.10
2022-09-16T04:29:03.241Z,1.00
2022-09-16T04:30:03.237Z,1.30
2022-09-16T04:31:03.335Z,1.00
2022-09-16T04:32:03.208Z,1.10
2022-09-16T04:33:03.204Z,1.10
2022-09-16T04:34:03.193Z,1.20
2022-09-16T04:35:03.194Z,1.10
2022-09-16T04:36:03.199Z,1.10
2022-09-16T04:37:03.181Z,1.30
2022-09-16T04:38:03.147Z,1.30
2022-09-16T04:39:03.134Z,1.30
2022-09-16T04:40:04.938Z,1.00
2022-09-16T04:41:03.114Z,1.70
2022-09-16T04:42:03.114Z,1.20
2022-09-16T04:43:03.081Z,1.50
2022-09-16T04:44:03.076Z,1.30
2022-09-16T04:45:03.077Z,1.10
2022-09-16T04:46:03.151Z,1.20
2022-09-16T04:47:03.050Z,1.20
2022-09-16T04:48:03.039Z,1.10
2022-09-16T04:49:03.036Z,1.10
2022-09-16T04:50:03.024Z,1.40
2022-09-16T04:51:03.031Z,1.30
2022-09-16T04:52:02.983Z,1.30
2022-09-16T04:53:02.969Z,1.20
2022-09-16T04:54:02.960Z,1.20
2022-09-16T04:55:02.954Z,1.20
2022-09-16T04:56:02.937Z,1.10
2022-09-16T04:57:02.940Z,1.30
2022-09-16T04:58:02.935Z,1.00
2022-09-16T04:59:02.913Z,1.10
2022-09-16T05:00:02.909Z,1.20
2022-09-16T05:01:02.968Z,1.20
2022-09-16T05:02:02.896Z,1.20
2022-09-16T05:03:02.905Z,1.20
2022-09-16T05:04:02.843Z,1.10
2022-09-16T05:05:02.888Z,1.40
2022-09-16T05:06:02.869Z,1.30
2022-09-16T05:07:02.856Z,1.40
2022-09-16T05:08:02.815Z,1.10
2022-09-16T05:09:02.809Z,1.40
2022-09-16T05:10:02.833Z,1.40
2022-09-16T05:11:02.765Z,1.10
2022-09-16T05:12:02.781Z,0.90
2022-09-16T05:13:02.760Z,0.90
2022-09-16T05:14:02.745Z,1.40
2022-09-16T05:15:02.791Z,0.90
2022-09-16T05:16:02.801Z,1.40
2022-09-16T05:17:02.717Z,1.10
2022-09-16T05:18:02.698Z,1.10
2022-09-16T05:19:02.689Z,1.20
2022-09-16T05:20:02.658Z,1.30
2022-09-16T05:21:02.675Z,1.30
2022-09-16T05:22:03.103Z,0.90
2022-09-16T05:23:02.761Z,1.30
2022-09-16T05:24:02.621Z,1.10
2022-09-16T05:25:02.622Z,1.10
2022-09-16T05:26:02.589Z,1.10
2022-09-16T05:27:02.585Z,1.40
2022-09-16T05:28:02.622Z,1.10
2022-09-16T05:29:02.566Z,1.30
2022-09-16T05:30:02.564Z,1.10
2022-09-16T05:31:02.621Z,1.10
2022-09-16T05:32:02.529Z,1.10
2022-09-16T05:33:02.516Z,1.00
2022-09-16T05:34:02.530Z,1.40
2022-09-16T05:35:02.499Z,1.20
2022-09-16T05:36:02.489Z,1.10
2022-09-16T05:37:02.479Z,0.90
2022-09-16T05:38:02.454Z,0.80
2022-09-16T05:40:03.485Z,1.20
2022-09-16T05:41:02.436Z,1.10
2022-09-16T05:42:02.426Z,0.80
2022-09-16T05:43:02.402Z,1.10
2022-09-16T05:44:02.401Z,1.20
2022-09-16T05:45:02.610Z,1.20
2022-09-16T05:46:02.465Z,1.20
2022-09-16T05:47:02.352Z,1.20
2022-09-16T05:48:02.360Z,0.90
2022-09-16T05:49:02.343Z,1.30
2022-09-16T05:50:02.340Z,1.20
2022-09-16T05:51:02.376Z,1.10
2022-09-16T05:52:02.310Z,1.20
2022-09-16T05:53:02.288Z,1.00
2022-09-16T05:54:02.281Z,1.00
2022-09-16T05:55:02.398Z,1.00
2022-09-16T05:56:02.296Z,1.00
2022-09-16T05:57:06.675Z,0.80
2022-09-16T05:58:02.272Z,0.70
2022-09-16T05:59:02.300Z,1.00
2022-09-16T06:00:02.225Z,1.10
2022-09-16T06:01:02.237Z,0.90
2022-09-16T06:02:02.437Z,0.90
2022-09-16T06:03:02.533Z,1.00
2022-09-16T06:04:02.202Z,1.20
2022-09-16T06:05:02.187Z,0.90
2022-09-16T06:06:02.170Z,1.10
2022-09-16T06:07:02.128Z,1.20
2022-09-16T06:08:02.128Z,1.20
2022-09-16T06:09:03.093Z,1.00
2022-09-16T06:10:02.130Z,0.80
2022-09-16T06:11:02.252Z,0.70
2022-09-16T06:12:02.524Z,1.10
2022-09-16T06:13:02.071Z,1.10
2022-09-16T06:14:02.066Z,1.00
2022-09-16T06:15:02.037Z,1.00
2022-09-16T06:16:02.155Z,1.00
2022-09-16T06:17:02.116Z,1.10
2022-09-16T06:18:06.281Z,0.90
2022-09-16T06:19:02.003Z,1.00
2022-09-16T06:20:03.606Z,0.90
2022-09-16T06:21:01.965Z,0.90
2022-09-16T06:22:01.985Z,0.90
2022-09-16T06:23:01.978Z,0.80
2022-09-16T06:24:02.112Z,1.20
2022-09-16T06:25:01.937Z,0.90
2022-09-16T06:26:01.903Z,0.90
2022-09-16T06:27:02.009Z,1.00
2022-09-16T06:28:02.092Z,0.80
2022-09-16T06:29:01.880Z,0.80
2022-09-16T06:30:01.881Z,0.70
2022-09-16T06:31:01.910Z,0.80
2022-09-16T06:32:01.895Z,0.70
2022-09-16T06:33:01.827Z,0.70
2022-09-16T06:34:01.826Z,0.60
2022-09-16T06:35:01.815Z,0.90
2022-09-16T06:36:01.792Z,0.90
2022-09-16T06:37:01.892Z,0.70
2022-09-16T06:38:01.805Z,0.60
2022-09-16T06:39:01.766Z,1.10
2022-09-16T06:40:01.851Z,0.80
2022-09-16T06:41:01.766Z,0.90
2022-09-16T06:42:01.736Z,0.80
2022-09-16T06:43:02.169Z,0.90
2022-09-16T06:44:01.716Z,0.80
2022-09-16T06:45:01.698Z,0.70
2022-09-16T06:46:01.744Z,0.80
2022-09-16T06:47:01.678Z,0.80
2022-09-16T06:48:01.673Z,1.10
2022-09-16T06:49:05.740Z,0.60
2022-09-16T06:50:01.641Z,1.00
2022-09-16T06:51:01.686Z,0.90
2022-09-16T06:52:01.649Z,0.90
2022-09-16T06:53:01.628Z,0.90
2022-09-16T06:54:02.580Z,1.00
2022-09-16T06:55:01.584Z,0.90
2022-09-16T06:56:01.628Z,0.90
2022-09-16T06:57:01.580Z,1.00
2022-09-16T06:58:01.559Z,0.80
2022-09-16T06:59:01.658Z,0.90
2022-09-16T07:00:01.526Z,1.00
2022-09-16T07:01:01.586Z,0.70
2022-09-16T07:02:01.558Z,0.90
2022-09-16T07:03:01.496Z,0.50
2022-09-16T07:04:01.533Z,0.80
2022-09-16T07:05:01.466Z,1.10
2022-09-16T07:06:01.491Z,1.10
2022-09-16T07:07:10.369Z,0.90
2022-09-16T07:08:02.454Z,1.10
2022-09-16T07:09:01.415Z,0.90
2022-09-16T07:10:01.422Z,0.90
2022-09-16T07:11:01.408Z,0.80
2022-09-16T07:12:01.407Z,0.80
2022-09-16T07:13:01.384Z,0.90
2022-09-16T07:14:01.368Z,0.60
2022-09-16T07:15:01.469Z,0.80
2022-09-16T07:16:12.776Z,0.80
2022-09-16T07:17:02.526Z,1.00
2022-09-16T07:18:01.333Z,0.90
2022-09-16T07:19:01.496Z,1.00
2022-09-16T07:20:01.411Z,0.90
2022-09-16T07:21:01.330Z,0.70
2022-09-16T07:22:01.288Z,0.70
2022-09-16T07:23:01.322Z,0.70
2022-09-16T07:24:01.253Z,0.80
2022-09-16T07:25:01.282Z,1.10
2022-09-16T07:26:01.257Z,1.00
2022-09-16T07:27:01.297Z,1.00
2022-09-16T07:28:01.210Z,0.70
2022-09-16T07:29:01.187Z,0.80
2022-09-16T07:30:03.518Z,1.00
2022-09-16T07:31:01.415Z,1.00
2022-09-16T07:32:01.168Z,1.20
2022-09-16T07:33:01.190Z,0.60
2022-09-16T07:34:04.013Z,0.70
2022-09-16T07:35:01.159Z,1.10
2022-09-16T07:36:01.141Z,0.70
2022-09-16T07:37:01.103Z,0.80
2022-09-16T07:38:01.096Z,0.80
2022-09-16T07:39:01.100Z,0.90
2022-09-16T07:40:01.089Z,0.60
2022-09-16T07:41:01.087Z,0.70
2022-09-16T07:42:05.750Z,0.80
2022-09-16T07:43:02.056Z,0.80
2022-09-16T07:44:01.049Z,0.60
2022-09-16T07:45:01.056Z,1.00
2022-09-16T07:46:01.073Z,0.80
2022-09-16T07:47:01.122Z,0.80
2022-09-16T07:48:00.973Z,0.90
2022-09-16T07:49:01.019Z,0.80
2022-09-16T07:50:00.981Z,0.70
2022-09-16T07:51:00.953Z,1.40
2022-09-16T07:52:00.941Z,1.10
2022-09-16T07:53:00.928Z,0.80
2022-09-16T07:54:00.964Z,0.70
2022-09-16T07:55:00.923Z,0.90
2022-09-16T07:56:00.908Z,0.70
2022-09-16T07:57:00.897Z,1.00
2022-09-16T07:58:00.888Z,0.80
2022-09-16T07:59:00.889Z,1.00
2022-09-16T08:00:00.928Z,1.10
2022-09-16T08:01:04.512Z,0.90
2022-09-16T08:02:00.947Z,1.10
2022-09-16T08:03:01.005Z,0.90
2022-09-16T08:04:00.805Z,0.80
2022-09-16T08:05:00.816Z,0.90
2022-09-16T08:06:00.791Z,0.80
2022-09-16T08:07:00.764Z,1.00
2022-09-16T08:08:00.771Z,0.80
2022-09-16T08:09:05.865Z,0.80
2022-09-16T08:10:01.771Z,0.80
2022-09-16T08:11:00.723Z,0.80
2022-09-16T08:12:00.717Z,0.90
2022-09-16T08:13:00.709Z,1.00
2022-09-16T08:14:00.711Z,0.90
2022-09-16T08:15:00.688Z,1.00
2022-09-16T08:16:00.697Z,0.90
2022-09-16T08:17:00.755Z,0.80
2022-09-16T08:18:00.685Z,0.90
2022-09-16T08:19:00.787Z,1.00
2022-09-16T08:20:00.631Z,0.70
2022-09-16T08:21:00.621Z,0.80
2022-09-16T08:22:00.588Z,0.90
2022-09-16T08:23:00.593Z,0.70
2022-09-16T08:24:00.586Z,1.00
2022-09-16T08:25:00.589Z,0.80
2022-09-16T08:26:00.544Z,0.70
2022-09-16T08:27:00.562Z,1.00
2022-09-16T08:28:00.555Z,0.60
2022-09-16T08:29:09.473Z,1.00
2022-09-16T08:30:01.626Z,0.80
2022-09-16T08:31:00.499Z,0.60
2022-09-16T08:32:00.605Z,0.50
2022-09-16T08:33:00.500Z,0.60
2022-09-16T08:34:00.471Z,1.00
2022-09-16T08:35:00.574Z,0.80
2022-09-16T08:36:00.439Z,0.70
2022-09-16T08:37:00.436Z,0.50
2022-09-16T08:38:00.441Z,0.70
2022-09-16T08:39:00.407Z,0.60
2022-09-16T08:40:00.538Z,0.60
2022-09-16T08:41:00.390Z,0.90
2022-09-16T08:42:00.440Z,0.50
2022-09-16T08:43:00.366Z,0.80
2022-09-16T08:44:00.349Z,0.90
2022-09-16T08:45:00.387Z,0.70
2022-09-16T08:46:00.391Z,0.80
2022-09-16T08:47:00.307Z,0.80
2022-09-16T08:48:00.322Z,0.60
2022-09-16T08:49:00.300Z,1.00
2022-09-16T08:50:00.314Z,0.70
2022-09-16T08:51:00.392Z,0.50
2022-09-16T08:52:00.256Z,0.80
2022-09-16T08:53:00.259Z,0.50
2022-09-16T08:54:00.244Z,0.80
2022-09-16T08:55:00.239Z,0.90
2022-09-16T08:56:00.218Z,0.70
2022-09-16T08:57:00.232Z,0.60
2022-09-16T08:58:00.195Z,0.30
2022-09-16T08:59:00.179Z,0.70
2022-09-16T09:00:00.167Z,0.50
2022-09-16T09:01:00.260Z,0.60
2022-09-16T09:02:03.903Z,0.90
2022-09-16T09:03:01.237Z,0.80
2022-09-16T09:04:00.139Z,0.70
2022-09-16T09:05:00.124Z,0.80
2022-09-16T09:06:00.116Z,0.80
2022-09-16T09:07:00.276Z,0.80
2022-09-16T09:08:00.081Z,0.70
2022-09-16T09:09:00.092Z,0.80
2022-09-16T09:10:00.062Z,0.50
2022-09-16T09:11:00.117Z,0.80
2022-09-16T09:12:00.065Z,0.60
2022-09-16T09:13:01.011Z,0.70
2022-09-16T09:14:00.014Z,0.60
2022-09-16T09:15:00.003Z,0.50
2022-09-16T09:16:00.082Z,0.70
2022-09-16T09:16:59.989Z,0.40
2022-09-16T09:17:59.985Z,0.70
2022-09-16T09:19:00.028Z,0.50
2022-09-16T09:19:59.952Z,0.50
2022-09-16T09:20:59.955Z,0.80
2022-09-16T09:21:59.987Z,0.70
2022-09-16T09:23:00.091Z,0.80
2022-09-16T09:24:00.106Z,0.60
2022-09-16T09:25:00.909Z,1.10
2022-09-16T09:25:59.911Z,0.60
2022-09-16T09:26:59.930Z,0.70
2022-09-16T09:27:59.867Z,0.50
2022-09-16T09:28:59.840Z,0.50
2022-09-16T09:29:59.883Z,0.50
2022-09-16T09:30:59.829Z,0.50
2022-09-16T09:32:00.032Z,0.40
2022-09-16T09:32:59.861Z,0.40
2022-09-16T09:33:59.793Z,0.60
2022-09-16T09:34:59.776Z,0.40
2022-09-16T09:35:59.805Z,0.70
2022-09-16T09:36:59.794Z,0.30
2022-09-16T09:37:59.743Z,0.90
2022-09-16T09:38:59.860Z,0.40
2022-09-16T09:39:59.845Z,0.50
2022-09-16T09:40:59.735Z,0.50
2022-09-16T09:41:59.729Z,0.40
2022-09-16T09:42:59.695Z,0.40
2022-09-16T09:43:59.683Z,0.50
2022-09-16T09:45:01.506Z,0.60
2022-09-16T09:45:59.695Z,0.40
2022-09-16T09:46:59.667Z,0.40
2022-09-16T09:47:59.909Z,0.60
2022-09-16T09:48:59.619Z,0.70
2022-09-16T09:49:59.623Z,0.40
2022-09-16T09:50:59.591Z,0.80
2022-09-16T09:51:59.602Z,0.50
2022-09-16T09:52:59.577Z,0.40
2022-09-16T09:53:59.709Z,0.70
2022-09-16T09:54:59.724Z,0.80
2022-09-16T09:55:59.558Z,0.50
2022-09-16T09:56:59.528Z,0.60
2022-09-16T09:57:59.525Z,0.40
2022-09-16T09:58:59.543Z,0.50
2022-09-16T09:59:59.558Z,0.50
2022-09-16T10:00:59.584Z,0.40
2022-09-16T10:01:59.532Z,0.50
2022-09-16T10:03:00.458Z,0.50
2022-09-16T10:03:59.490Z,0.70
2022-09-16T10:04:59.448Z,0.50
2022-09-16T10:05:59.457Z,0.60
2022-09-16T10:09:20.240Z,0.30
2022-09-16T10:10:20.361Z,0.50
2022-09-16T10:11:20.225Z,0.50
2022-09-16T10:12:20.208Z,0.50
2022-09-16T10:13:20.199Z,0.40
2022-09-16T10:14:20.175Z,0.40
2022-09-16T10:15:20.193Z,0.50
2022-09-16T10:16:20.227Z,0.50
2022-09-16T10:17:20.150Z,0.60
2022-09-16T10:18:20.214Z,0.60
2022-09-16T10:19:20.114Z,0.50
2022-09-16T10:20:20.113Z,0.50
2022-09-16T10:21:20.266Z,0.40
2022-09-16T10:22:20.177Z,0.50
2022-09-16T10:23:20.084Z,0.30
2022-09-16T10:24:20.112Z,0.80
2022-09-16T10:25:20.081Z,0.50
2022-09-16T10:26:20.248Z,0.50
2022-09-16T10:27:20.034Z,0.40
2022-09-16T10:28:20.027Z,0.40
2022-09-16T10:29:20.005Z,0.30
2022-09-16T10:30:20.171Z,0.40
2022-09-16T10:31:20.826Z,0.60
2022-09-16T10:32:19.995Z,0.40
2022-09-16T10:33:19.977Z,0.60
2022-09-16T10:34:20.033Z,0.70
2022-09-16T10:35:20.685Z,0.60
2022-09-16T10:36:20.067Z,0.30
2022-09-16T10:37:19.951Z,0.70
2022-09-16T10:38:20.718Z,0.50
2022-09-16T10:39:19.916Z,0.70
2022-09-16T10:40:19.982Z,0.40
2022-09-16T10:41:19.883Z,0.40
2022-09-16T10:42:20.002Z,0.40
2022-09-16T10:43:19.898Z,0.50
2022-09-16T10:44:19.859Z,0.50
2022-09-16T10:45:19.855Z,0.40
2022-09-16T10:46:19.925Z,0.50
2022-09-16T10:47:19.829Z,0.50
2022-09-16T10:48:19.835Z,0.50
2022-09-16T10:49:21.699Z,0.50
2022-09-16T10:50:20.183Z,0.30
2022-09-16T10:51:19.774Z,0.60
2022-09-16T10:52:19.760Z,0.40
2022-09-16T10:53:19.796Z,0.50
2022-09-16T10:54:19.742Z,0.40
2022-09-16T10:55:19.750Z,0.50
2022-09-16T10:56:19.749Z,0.50
2022-09-16T10:57:19.717Z,0.50
2022-09-16T10:58:19.832Z,0.40
2022-09-16T10:59:19.687Z,0.60
2022-09-16T11:00:19.698Z,0.70
2022-09-16T11:01:20.531Z,0.50
2022-09-16T11:03:19.915Z,0.70
2022-09-16T11:04:19.644Z,0.70
2022-09-16T11:05:24.046Z,0.40
2022-09-16T11:06:20.645Z,0.70
2022-09-16T11:07:19.587Z,0.60
2022-09-16T11:08:19.593Z,0.50
2022-09-16T11:09:19.577Z,0.50
2022-09-16T11:10:19.572Z,0.50
2022-09-16T11:11:19.691Z,0.50
2022-09-16T11:12:19.554Z,0.30
2022-09-16T11:13:19.534Z,0.50
2022-09-16T11:14:19.703Z,0.40
2022-09-16T11:15:19.562Z,0.50
2022-09-16T11:16:19.622Z,0.40
2022-09-16T11:17:19.494Z,0.50
2022-09-16T11:18:19.472Z,0.30
2022-09-16T11:19:19.453Z,0.70
2022-09-16T11:20:19.553Z,0.50
2022-09-16T11:21:19.506Z,0.40
2022-09-16T11:22:19.532Z,0.50
2022-09-16T11:23:19.437Z,0.50
2022-09-16T11:24:19.439Z,0.40
2022-09-16T11:25:19.392Z,0.50
2022-09-16T11:26:19.412Z,0.50
2022-09-16T11:27:19.376Z,0.40
2022-09-16T11:28:19.376Z,0.60
2022-09-16T11:29:23.137Z,0.60
2022-09-16T11:30:20.475Z,0.50
2022-09-16T11:31:19.470Z,0.50
2022-09-16T11:32:19.321Z,0.30
2022-09-16T11:33:19.335Z,0.70
2022-09-16T11:34:19.303Z,0.60
2022-09-16T11:35:19.285Z,0.50
2022-09-16T11:36:19.287Z,0.50
2022-09-16T11:37:19.322Z,0.60
2022-09-16T11:38:19.268Z,0.50
2022-09-16T11:39:19.231Z,0.60
2022-09-16T11:40:19.265Z,0.40
2022-09-16T11:41:19.224Z,0.60
2022-09-16T11:42:19.210Z,0.50
2022-09-16T11:43:19.232Z,0.50
2022-09-16T11:44:19.179Z,0.30
2022-09-16T11:45:19.208Z,0.50
2022-09-16T11:46:19.354Z,0.50
2022-09-16T11:47:19.171Z,0.50
2022-09-16T11:48:19.146Z,0.50
2022-09-16T11:49:19.178Z,0.60
2022-09-16T11:50:19.104Z,0.70
2022-09-16T11:51:19.146Z,0.70
2022-09-16T11:52:19.089Z,0.50
2022-09-16T11:53:21.225Z,0.50
2022-09-16T11:54:19.146Z,0.40
2022-09-16T11:55:19.053Z,0.50
2022-09-16T11:56:19.046Z,0.50
2022-09-16T11:57:19.052Z,0.30
2022-09-16T11:58:19.199Z,0.50
2022-09-16T11:59:19.057Z,0.40
2022-09-16T12:00:19.023Z,0.40
2022-09-16T12:02:19.187Z,0.60
2022-09-16T12:03:19.051Z,0.50
2022-09-16T12:04:18.961Z,0.60
2022-09-16T12:05:18.962Z,0.40
2022-09-16T12:06:18.941Z,0.70
2022-09-16T12:07:19.039Z,0.70
2022-09-16T12:08:18.935Z,0.70
2022-09-16T12:09:18.902Z,0.50
2022-09-16T12:10:18.895Z,0.30
2022-09-16T12:11:18.905Z,0.50
2022-09-16T12:12:18.874Z,0.50
2022-09-16T12:13:18.858Z,0.50
2022-09-16T12:14:18.865Z,0.50
2022-09-16T12:15:18.843Z,0.40
2022-09-16T12:16:18.840Z,0.40
2022-09-16T12:17:18.811Z,0.50
2022-09-16T12:18:18.938Z,0.30
2022-09-16T12:19:18.805Z,0.60
2022-09-16T12:20:18.774Z,0.40
2022-09-16T12:21:18.772Z,0.50
2022-09-16T12:22:18.774Z,0.30
2022-09-16T12:23:18.750Z,0.60
2022-09-16T12:24:18.749Z,0.60
2022-09-16T12:25:18.760Z,0.40
2022-09-16T12:26:18.728Z,0.50
2022-09-16T12:27:18.722Z,0.50
2022-09-16T12:28:18.724Z,0.50
2022-09-16T12:29:18.688Z,0.40
2022-09-16T12:30:18.695Z,0.50
2022-09-16T12:31:23.079Z,0.30
2022-09-16T12:32:19.662Z,0.60
2022-09-16T12:33:18.657Z,0.50
2022-09-16T12:34:18.782Z,0.50
2022-09-16T12:35:18.704Z,0.50
2022-09-16T12:36:21.649Z,0.50
2022-09-16T12:37:19.648Z,0.40
2022-09-16T12:38:18.588Z,0.70
2022-09-16T12:39:18.628Z,0.60
2022-09-16T12:40:18.675Z,0.50
2022-09-16T12:41:18.542Z,0.50
2022-09-16T12:42:18.535Z,0.70
2022-09-16T12:43:18.541Z,0.40
2022-09-16T12:44:33.606Z,0.70
2022-09-16T12:45:19.514Z,0.50
2022-09-16T12:46:18.555Z,0.60
2022-09-16T12:47:18.482Z,0.50
2022-09-16T12:48:18.532Z,0.80
2022-09-16T12:49:18.479Z,0.60
2022-09-16T12:50:18.582Z,0.60
2022-09-16T12:51:18.440Z,0.50
2022-09-16T12:52:18.453Z,0.50
2022-09-16T12:53:18.438Z,0.40
2022-09-16T12:54:18.416Z,0.70
2022-09-16T12:55:18.397Z,0.60
2022-09-16T12:56:18.385Z,0.70
2022-09-16T12:57:18.394Z,0.80
2022-09-16T12:58:18.407Z,0.60
2022-09-16T12:59:18.350Z,0.60
2022-09-16T13:00:18.351Z,0.70
2022-09-16T13:01:18.485Z,0.70
2022-09-16T13:02:18.489Z,0.70
2022-09-16T13:03:18.318Z,0.70
2022-09-16T13:04:18.287Z,0.60
2022-09-16T13:05:18.288Z,0.70
2022-09-16T13:06:18.537Z,0.70
2022-09-16T13:07:18.291Z,0.90
2022-09-16T13:08:18.344Z,0.80
2022-09-16T13:09:18.234Z,0.70
2022-09-16T13:10:20.854Z,0.60
2022-09-16T13:12:48.871Z,0.50
2022-09-16T13:13:19.230Z,0.50
2022-09-16T13:14:18.189Z,0.70
2022-09-16T13:15:18.170Z,0.40
2022-09-16T13:16:18.221Z,0.70
2022-09-16T13:17:18.149Z,0.40
2022-09-16T13:18:18.141Z,0.40
2022-09-16T13:19:18.141Z,0.30
2022-09-16T13:20:18.140Z,0.50
2022-09-16T13:21:18.112Z,0.60
2022-09-16T13:22:18.239Z,0.50
2022-09-16T13:23:18.077Z,0.40
2022-09-16T13:24:18.071Z,0.60